sensor_id;sensor_type;location;lat;lon;timestamp;P1;durP1;ratioP1;P2;durP2;ratioP2
7215;SDS011;3649;48.798;9.798;2023-07-31T00:00:14;4.07;;;1.93;;
7215;SDS011;3649;48.798;9.798;2023-07-31T00:02:41;8.50;;;1.93;;
7215;SDS011;3649;48.798;9.798;2023-07-31T00:05:08;3.60;;;2.30;;
7215;SDS011;3649;48.798;9.798;2023-07-31T00:07:36;4.13;;;1.90;;
7215;SDS011;3649;48.798;9.798;2023-07-31T00:10:03;2.67;;;2.00;;
7215;SDS011;3649;48.798;9.798;2023-07-31T00:12:30;3.77;;;2.13;;
7215;SDS011;3649;48.798;9.798;2023-07-31T00:14:57;4.60;;;2.43;;
7215;SDS011;3649;48.798;9.798;2023-07-31T00:17:24;4.50;;;2.47;;
7215;SDS011;3649;48.798;9.798;2023-07-31T00:19:51;4.50;;;2.20;;
7215;SDS011;3649;48.798;9.798;2023-07-31T00:22:18;2.17;;;1.90;;
7215;SDS011;3649;48.798;9.798;2023-07-31T00:24:45;4.37;;;2.07;;
7215;SDS011;3649;48.798;9.798;2023-07-31T00:27:12;6.37;;;2.33;;
7215;SDS011;3649;48.798;9.798;2023-07-31T00:29:39;2.10;;;1.90;;
7215;SDS011;3649;48.798;9.798;2023-07-31T00:32:06;2.20;;;2.07;;
7215;SDS011;3649;48.798;9.798;2023-07-31T00:34:33;2.77;;;2.10;;
7215;SDS011;3649;48.798;9.798;2023-07-31T00:37:00;4.40;;;2.03;;
7215;SDS011;3649;48.798;9.798;2023-07-31T00:39:27;4.33;;;2.13;;
7215;SDS011;3649;48.798;9.798;2023-07-31T00:41:55;5.83;;;2.20;;
7215;SDS011;3649;48.798;9.798;2023-07-31T00:44:22;3.63;;;1.97;;
7215;SDS011;3649;48.798;9.798;2023-07-31T00:46:49;2.20;;;1.90;;
7215;SDS011;3649;48.798;9.798;2023-07-31T00:49:16;4.03;;;2.20;;
7215;SDS011;3649;48.798;9.798;2023-07-31T00:51:44;5.67;;;2.23;;
7215;SDS011;3649;48.798;9.798;2023-07-31T00:54:10;5.37;;;2.10;;
7215;SDS011;3649;48.798;9.798;2023-07-31T00:56:37;4.30;;;2.67;;
7215;SDS011;3649;48.798;9.798;2023-07-31T00:59:05;3.70;;;2.03;;
7215;SDS011;3649;48.798;9.798;2023-07-31T01:01:32;3.93;;;2.07;;
7215;SDS011;3649;48.798;9.798;2023-07-31T01:03:59;2.73;;;2.00;;
7215;SDS011;3649;48.798;9.798;2023-07-31T01:11:53;5.17;;;2.07;;
7215;SDS011;3649;48.798;9.798;2023-07-31T01:14:23;6.10;;;2.37;;
7215;SDS011;3649;48.798;9.798;2023-07-31T01:16:50;14.17;;;2.87;;
7215;SDS011;3649;48.798;9.798;2023-07-31T01:19:18;8.73;;;2.47;;
7215;SDS011;3649;48.798;9.798;2023-07-31T01:27:53;3.47;;;2.30;;
7215;SDS011;3649;48.798;9.798;2023-07-31T01:30:34;3.83;;;2.27;;
7215;SDS011;3649;48.798;9.798;2023-07-31T01:33:15;4.53;;;2.47;;
7215;SDS011;3649;48.798;9.798;2023-07-31T01:35:43;2.43;;;2.13;;
7215;SDS011;3649;48.798;9.798;2023-07-31T01:38:12;2.37;;;2.07;;
7215;SDS011;3649;48.798;9.798;2023-07-31T01:40:42;2.53;;;2.13;;
7215;SDS011;3649;48.798;9.798;2023-07-31T01:43:09;3.70;;;2.07;;
7215;SDS011;3649;48.798;9.798;2023-07-31T01:45:36;3.30;;;2.07;;
7215;SDS011;3649;48.798;9.798;2023-07-31T01:48:03;2.23;;;2.03;;
7215;SDS011;3649;48.798;9.798;2023-07-31T01:50:30;5.93;;;2.40;;
7215;SDS011;3649;48.798;9.798;2023-07-31T01:52:57;2.70;;;2.30;;
7215;SDS011;3649;48.798;9.798;2023-07-31T01:55:31;5.90;;;2.30;;
7215;SDS011;3649;48.798;9.798;2023-07-31T01:57:58;8.50;;;2.50;;
7215;SDS011;3649;48.798;9.798;2023-07-31T02:00:24;5.43;;;2.33;;
7215;SDS011;3649;48.798;9.798;2023-07-31T02:02:51;2.80;;;2.03;;
7215;SDS011;3649;48.798;9.798;2023-07-31T02:05:18;3.87;;;2.90;;
7215;SDS011;3649;48.798;9.798;2023-07-31T02:07:45;4.37;;;3.40;;
7215;SDS011;3649;48.798;9.798;2023-07-31T02:10:12;5.23;;;3.20;;
7215;SDS011;3649;48.798;9.798;2023-07-31T02:12:39;6.33;;;3.33;;
7215;SDS011;3649;48.798;9.798;2023-07-31T02:15:06;7.37;;;3.43;;
7215;SDS011;3649;48.798;9.798;2023-07-31T02:17:33;3.67;;;3.30;;
7215;SDS011;3649;48.798;9.798;2023-07-31T02:20:00;5.23;;;3.20;;
7215;SDS011;3649;48.798;9.798;2023-07-31T02:22:27;5.23;;;2.20;;
7215;SDS011;3649;48.798;9.798;2023-07-31T02:24:53;4.97;;;2.13;;
7215;SDS011;3649;48.798;9.798;2023-07-31T02:27:20;2.07;;;1.87;;
7215;SDS011;3649;48.798;9.798;2023-07-31T02:29:50;2.83;;;2.20;;
7215;SDS011;3649;48.798;9.798;2023-07-31T02:32:17;3.47;;;2.23;;
7215;SDS011;3649;48.798;9.798;2023-07-31T02:34:44;2.50;;;2.30;;
7215;SDS011;3649;48.798;9.798;2023-07-31T02:37:10;4.23;;;2.50;;
7215;SDS011;3649;48.798;9.798;2023-07-31T02:39:37;3.00;;;1.90;;
7215;SDS011;3649;48.798;9.798;2023-07-31T02:42:04;6.80;;;2.50;;
7215;SDS011;3649;48.798;9.798;2023-07-31T02:44:31;4.40;;;3.00;;
7215;SDS011;3649;48.798;9.798;2023-07-31T02:46:58;3.67;;;2.70;;
7215;SDS011;3649;48.798;9.798;2023-07-31T02:49:25;9.37;;;3.40;;
7215;SDS011;3649;48.798;9.798;2023-07-31T02:51:52;7.17;;;3.47;;
7215;SDS011;3649;48.798;9.798;2023-07-31T02:54:19;5.47;;;3.43;;
7215;SDS011;3649;48.798;9.798;2023-07-31T02:56:47;8.23;;;4.43;;
7215;SDS011;3649;48.798;9.798;2023-07-31T02:59:15;4.37;;;3.70;;
7215;SDS011;3649;48.798;9.798;2023-07-31T03:01:43;4.03;;;3.27;;
7215;SDS011;3649;48.798;9.798;2023-07-31T03:04:11;4.17;;;3.53;;
7215;SDS011;3649;48.798;9.798;2023-07-31T03:06:39;6.00;;;3.40;;
7215;SDS011;3649;48.798;9.798;2023-07-31T03:09:06;4.67;;;3.10;;
7215;SDS011;3649;48.798;9.798;2023-07-31T03:11:33;8.00;;;3.30;;
7215;SDS011;3649;48.798;9.798;2023-07-31T03:14:00;3.07;;;2.83;;
7215;SDS011;3649;48.798;9.798;2023-07-31T03:16:26;6.10;;;3.17;;
7215;SDS011;3649;48.798;9.798;2023-07-31T03:18:54;4.03;;;3.27;;
7215;SDS011;3649;48.798;9.798;2023-07-31T03:21:20;3.87;;;2.60;;
7215;SDS011;3649;48.798;9.798;2023-07-31T03:23:47;4.17;;;2.70;;
7215;SDS011;3649;48.798;9.798;2023-07-31T03:26:14;3.17;;;2.37;;
7215;SDS011;3649;48.798;9.798;2023-07-31T03:28:41;3.80;;;2.40;;
7215;SDS011;3649;48.798;9.798;2023-07-31T03:31:08;5.07;;;2.33;;
7215;SDS011;3649;48.798;9.798;2023-07-31T03:33:35;4.17;;;2.60;;
7215;SDS011;3649;48.798;9.798;2023-07-31T03:36:02;4.97;;;2.77;;
7215;SDS011;3649;48.798;9.798;2023-07-31T03:38:29;6.80;;;2.60;;
7215;SDS011;3649;48.798;9.798;2023-07-31T03:40:56;3.80;;;3.03;;
7215;SDS011;3649;48.798;9.798;2023-07-31T03:43:25;6.73;;;3.50;;
7215;SDS011;3649;48.798;9.798;2023-07-31T03:45:52;10.83;;;2.90;;
7215;SDS011;3649;48.798;9.798;2023-07-31T03:48:19;3.97;;;2.63;;
7215;SDS011;3649;48.798;9.798;2023-07-31T03:50:46;5.50;;;2.60;;
7215;SDS011;3649;48.798;9.798;2023-07-31T03:53:13;4.20;;;2.87;;
7215;SDS011;3649;48.798;9.798;2023-07-31T03:55:40;4.07;;;2.87;;
7215;SDS011;3649;48.798;9.798;2023-07-31T03:58:06;5.37;;;2.50;;
7215;SDS011;3649;48.798;9.798;2023-07-31T04:00:33;2.83;;;2.60;;
7215;SDS011;3649;48.798;9.798;2023-07-31T04:03:00;3.57;;;2.60;;
7215;SDS011;3649;48.798;9.798;2023-07-31T04:05:29;6.93;;;2.60;;
7215;SDS011;3649;48.798;9.798;2023-07-31T04:07:57;4.30;;;2.77;;
7215;SDS011;3649;48.798;9.798;2023-07-31T04:10:24;3.97;;;2.73;;
7215;SDS011;3649;48.798;9.798;2023-07-31T04:12:51;3.27;;;2.83;;
7215;SDS011;3649;48.798;9.798;2023-07-31T04:15:18;5.70;;;2.93;;
7215;SDS011;3649;48.798;9.798;2023-07-31T04:17:45;3.03;;;2.73;;
7215;SDS011;3649;48.798;9.798;2023-07-31T04:20:12;4.57;;;2.90;;
7215;SDS011;3649;48.798;9.798;2023-07-31T04:22:38;5.80;;;2.50;;
7215;SDS011;3649;48.798;9.798;2023-07-31T04:25:05;4.97;;;2.73;;
7215;SDS011;3649;48.798;9.798;2023-07-31T04:27:32;2.70;;;2.43;;
7215;SDS011;3649;48.798;9.798;2023-07-31T04:29:59;5.47;;;2.23;;
7215;SDS011;3649;48.798;9.798;2023-07-31T04:32:26;9.37;;;2.83;;
7215;SDS011;3649;48.798;9.798;2023-07-31T04:34:53;2.97;;;2.40;;
7215;SDS011;3649;48.798;9.798;2023-07-31T04:37:20;7.87;;;2.57;;
7215;SDS011;3649;48.798;9.798;2023-07-31T04:39:46;2.80;;;2.33;;
7215;SDS011;3649;48.798;9.798;2023-07-31T04:42:13;3.13;;;2.60;;
7215;SDS011;3649;48.798;9.798;2023-07-31T04:44:40;5.90;;;2.83;;
7215;SDS011;3649;48.798;9.798;2023-07-31T04:47:07;3.73;;;2.63;;
7215;SDS011;3649;48.798;9.798;2023-07-31T04:49:34;5.67;;;2.83;;
7215;SDS011;3649;48.798;9.798;2023-07-31T04:52:00;3.53;;;2.97;;
7215;SDS011;3649;48.798;9.798;2023-07-31T04:54:27;3.43;;;2.70;;
7215;SDS011;3649;48.798;9.798;2023-07-31T04:56:54;5.70;;;3.47;;
7215;SDS011;3649;48.798;9.798;2023-07-31T04:59:21;8.53;;;2.97;;
7215;SDS011;3649;48.798;9.798;2023-07-31T05:01:48;5.90;;;3.20;;
7215;SDS011;3649;48.798;9.798;2023-07-31T05:04:15;4.73;;;3.17;;
7215;SDS011;3649;48.798;9.798;2023-07-31T05:06:43;6.47;;;3.40;;
7215;SDS011;3649;48.798;9.798;2023-07-31T05:09:10;5.60;;;3.13;;
7215;SDS011;3649;48.798;9.798;2023-07-31T05:11:37;4.70;;;2.80;;
7215;SDS011;3649;48.798;9.798;2023-07-31T05:14:04;4.73;;;3.03;;
7215;SDS011;3649;48.798;9.798;2023-07-31T05:16:30;6.37;;;3.20;;
7215;SDS011;3649;48.798;9.798;2023-07-31T05:18:57;8.07;;;3.30;;
7215;SDS011;3649;48.798;9.798;2023-07-31T05:21:24;8.40;;;2.97;;
7215;SDS011;3649;48.798;9.798;2023-07-31T05:23:51;4.40;;;3.10;;
7215;SDS011;3649;48.798;9.798;2023-07-31T05:26:18;6.83;;;2.83;;
7215;SDS011;3649;48.798;9.798;2023-07-31T05:28:45;5.27;;;3.27;;
7215;SDS011;3649;48.798;9.798;2023-07-31T05:31:12;5.90;;;2.73;;
7215;SDS011;3649;48.798;9.798;2023-07-31T05:33:39;5.90;;;3.27;;
7215;SDS011;3649;48.798;9.798;2023-07-31T05:36:06;5.43;;;2.80;;
7215;SDS011;3649;48.798;9.798;2023-07-31T05:38:32;8.90;;;4.13;;
7215;SDS011;3649;48.798;9.798;2023-07-31T05:40:59;3.50;;;2.60;;
7215;SDS011;3649;48.798;9.798;2023-07-31T05:43:26;4.57;;;3.97;;
7215;SDS011;3649;48.798;9.798;2023-07-31T05:45:53;6.43;;;3.90;;
7215;SDS011;3649;48.798;9.798;2023-07-31T05:48:20;4.27;;;3.63;;
7215;SDS011;3649;48.798;9.798;2023-07-31T05:50:47;7.03;;;3.50;;
7215;SDS011;3649;48.798;9.798;2023-07-31T05:53:14;5.50;;;3.00;;
7215;SDS011;3649;48.798;9.798;2023-07-31T05:55:40;4.80;;;3.43;;
7215;SDS011;3649;48.798;9.798;2023-07-31T05:58:07;7.70;;;3.10;;
7215;SDS011;3649;48.798;9.798;2023-07-31T06:00:34;7.57;;;3.70;;
7215;SDS011;3649;48.798;9.798;2023-07-31T06:03:01;3.87;;;2.87;;
7215;SDS011;3649;48.798;9.798;2023-07-31T06:05:28;2.80;;;2.50;;
7215;SDS011;3649;48.798;9.798;2023-07-31T06:07:56;3.73;;;2.60;;
7215;SDS011;3649;48.798;9.798;2023-07-31T06:10:23;3.63;;;2.50;;
7215;SDS011;3649;48.798;9.798;2023-07-31T06:12:50;3.03;;;2.43;;
7215;SDS011;3649;48.798;9.798;2023-07-31T06:15:17;7.80;;;2.57;;
7215;SDS011;3649;48.798;9.798;2023-07-31T06:17:45;3.90;;;2.13;;
7215;SDS011;3649;48.798;9.798;2023-07-31T06:20:12;4.77;;;2.20;;
7215;SDS011;3649;48.798;9.798;2023-07-31T06:22:39;6.73;;;2.80;;
7215;SDS011;3649;48.798;9.798;2023-07-31T06:25:06;4.47;;;2.63;;
7215;SDS011;3649;48.798;9.798;2023-07-31T06:27:37;6.70;;;2.03;;
7215;SDS011;3649;48.798;9.798;2023-07-31T06:30:04;3.87;;;2.40;;
7215;SDS011;3649;48.798;9.798;2023-07-31T06:32:32;6.77;;;2.30;;
7215;SDS011;3649;48.798;9.798;2023-07-31T06:34:59;4.50;;;2.37;;
7215;SDS011;3649;48.798;9.798;2023-07-31T06:37:26;4.43;;;2.10;;
7215;SDS011;3649;48.798;9.798;2023-07-31T06:39:53;2.10;;;1.90;;
7215;SDS011;3649;48.798;9.798;2023-07-31T06:42:20;4.53;;;2.33;;
7215;SDS011;3649;48.798;9.798;2023-07-31T06:44:47;2.73;;;2.10;;
7215;SDS011;3649;48.798;9.798;2023-07-31T06:47:14;3.20;;;2.20;;
7215;SDS011;3649;48.798;9.798;2023-07-31T06:49:41;5.87;;;2.33;;
7215;SDS011;3649;48.798;9.798;2023-07-31T06:52:08;3.90;;;2.20;;
7215;SDS011;3649;48.798;9.798;2023-07-31T06:54:37;4.70;;;2.10;;
7215;SDS011;3649;48.798;9.798;2023-07-31T06:57:04;4.03;;;2.43;;
7215;SDS011;3649;48.798;9.798;2023-07-31T06:59:32;2.80;;;2.23;;
7215;SDS011;3649;48.798;9.798;2023-07-31T07:01:59;4.00;;;1.73;;
7215;SDS011;3649;48.798;9.798;2023-07-31T07:04:26;4.60;;;2.20;;
7215;SDS011;3649;48.798;9.798;2023-07-31T07:06:53;3.00;;;1.83;;
7215;SDS011;3649;48.798;9.798;2023-07-31T07:09:20;3.30;;;1.83;;
7215;SDS011;3649;48.798;9.798;2023-07-31T07:11:47;5.73;;;2.20;;
7215;SDS011;3649;48.798;9.798;2023-07-31T07:14:14;4.50;;;2.07;;
7215;SDS011;3649;48.798;9.798;2023-07-31T07:16:41;4.77;;;2.07;;
7215;SDS011;3649;48.798;9.798;2023-07-31T07:19:09;2.40;;;1.90;;
7215;SDS011;3649;48.798;9.798;2023-07-31T07:21:36;4.13;;;2.30;;
7215;SDS011;3649;48.798;9.798;2023-07-31T07:24:03;3.73;;;1.90;;
7215;SDS011;3649;48.798;9.798;2023-07-31T07:26:30;4.33;;;2.00;;
7215;SDS011;3649;48.798;9.798;2023-07-31T07:28:57;3.60;;;1.77;;
7215;SDS011;3649;48.798;9.798;2023-07-31T07:31:27;4.97;;;2.23;;
7215;SDS011;3649;48.798;9.798;2023-07-31T07:33:54;3.23;;;2.10;;
7215;SDS011;3649;48.798;9.798;2023-07-31T07:36:22;4.70;;;2.10;;
7215;SDS011;3649;48.798;9.798;2023-07-31T07:38:49;3.10;;;2.00;;
7215;SDS011;3649;48.798;9.798;2023-07-31T07:41:16;4.03;;;2.23;;
7215;SDS011;3649;48.798;9.798;2023-07-31T07:43:43;6.17;;;1.97;;
7215;SDS011;3649;48.798;9.798;2023-07-31T07:46:10;6.60;;;2.23;;
7215;SDS011;3649;48.798;9.798;2023-07-31T07:48:38;2.33;;;2.10;;
7215;SDS011;3649;48.798;9.798;2023-07-31T07:51:05;2.80;;;1.80;;
7215;SDS011;3649;48.798;9.798;2023-07-31T07:53:32;5.50;;;1.90;;
7215;SDS011;3649;48.798;9.798;2023-07-31T07:55:59;2.63;;;1.90;;
7215;SDS011;3649;48.798;9.798;2023-07-31T07:58:27;3.47;;;2.10;;
7215;SDS011;3649;48.798;9.798;2023-07-31T08:00:54;2.30;;;2.10;;
7215;SDS011;3649;48.798;9.798;2023-07-31T08:03:21;4.93;;;2.10;;
7215;SDS011;3649;48.798;9.798;2023-07-31T08:05:49;4.43;;;2.20;;
7215;SDS011;3649;48.798;9.798;2023-07-31T08:08:16;6.77;;;2.40;;
7215;SDS011;3649;48.798;9.798;2023-07-31T08:10:44;3.87;;;2.20;;
7215;SDS011;3649;48.798;9.798;2023-07-31T08:13:11;5.67;;;2.27;;
7215;SDS011;3649;48.798;9.798;2023-07-31T08:15:40;4.37;;;1.93;;
7215;SDS011;3649;48.798;9.798;2023-07-31T08:18:08;3.80;;;2.10;;
7215;SDS011;3649;48.798;9.798;2023-07-31T08:20:36;3.97;;;2.00;;
7215;SDS011;3649;48.798;9.798;2023-07-31T08:23:03;3.90;;;2.00;;
7215;SDS011;3649;48.798;9.798;2023-07-31T08:25:36;6.37;;;2.27;;
7215;SDS011;3649;48.798;9.798;2023-07-31T08:28:04;3.50;;;2.40;;
7215;SDS011;3649;48.798;9.798;2023-07-31T08:30:32;2.80;;;2.10;;
7215;SDS011;3649;48.798;9.798;2023-07-31T08:33:00;4.10;;;2.17;;
7215;SDS011;3649;48.798;9.798;2023-07-31T08:35:29;5.73;;;2.20;;
7215;SDS011;3649;48.798;9.798;2023-07-31T08:37:56;5.60;;;2.10;;
7215;SDS011;3649;48.798;9.798;2023-07-31T08:40:23;4.93;;;2.37;;
7215;SDS011;3649;48.798;9.798;2023-07-31T08:42:53;2.57;;;2.20;;
7215;SDS011;3649;48.798;9.798;2023-07-31T08:45:20;5.13;;;2.50;;
7215;SDS011;3649;48.798;9.798;2023-07-31T08:47:51;3.70;;;2.03;;
7215;SDS011;3649;48.798;9.798;2023-07-31T08:50:19;4.70;;;2.60;;
7215;SDS011;3649;48.798;9.798;2023-07-31T08:52:48;11.00;;;2.80;;
7215;SDS011;3649;48.798;9.798;2023-07-31T08:55:16;5.97;;;2.50;;
7215;SDS011;3649;48.798;9.798;2023-07-31T08:57:43;4.37;;;2.57;;
7215;SDS011;3649;48.798;9.798;2023-07-31T09:00:13;6.57;;;2.83;;
7215;SDS011;3649;48.798;9.798;2023-07-31T09:02:43;7.17;;;2.10;;
7215;SDS011;3649;48.798;9.798;2023-07-31T09:05:18;5.90;;;2.70;;
7215;SDS011;3649;48.798;9.798;2023-07-31T09:07:48;4.80;;;2.47;;
7215;SDS011;3649;48.798;9.798;2023-07-31T09:10:17;5.43;;;2.67;;
7215;SDS011;3649;48.798;9.798;2023-07-31T09:12:44;3.37;;;2.27;;
7215;SDS011;3649;48.798;9.798;2023-07-31T09:15:12;4.17;;;2.50;;
7215;SDS011;3649;48.798;9.798;2023-07-31T09:17:59;6.83;;;2.47;;
7215;SDS011;3649;48.798;9.798;2023-07-31T09:20:28;5.00;;;2.67;;
7215;SDS011;3649;48.798;9.798;2023-07-31T09:22:56;5.93;;;2.23;;
7215;SDS011;3649;48.798;9.798;2023-07-31T09:25:31;3.77;;;2.13;;
7215;SDS011;3649;48.798;9.798;2023-07-31T09:27:59;5.00;;;2.57;;
7215;SDS011;3649;48.798;9.798;2023-07-31T09:30:27;8.40;;;2.80;;
7215;SDS011;3649;48.798;9.798;2023-07-31T09:33:02;2.73;;;2.33;;
7215;SDS011;3649;48.798;9.798;2023-07-31T09:35:31;5.53;;;2.17;;
7215;SDS011;3649;48.798;9.798;2023-07-31T09:38:00;4.80;;;2.37;;
7215;SDS011;3649;48.798;9.798;2023-07-31T09:40:32;7.23;;;2.37;;
7215;SDS011;3649;48.798;9.798;2023-07-31T09:43:01;6.90;;;2.83;;
7215;SDS011;3649;48.798;9.798;2023-07-31T09:45:33;7.27;;;3.10;;
7215;SDS011;3649;48.798;9.798;2023-07-31T09:48:08;4.07;;;2.30;;
7215;SDS011;3649;48.798;9.798;2023-07-31T09:50:39;4.30;;;2.10;;
7215;SDS011;3649;48.798;9.798;2023-07-31T09:53:07;2.60;;;2.40;;
7215;SDS011;3649;48.798;9.798;2023-07-31T09:55:36;4.53;;;2.90;;
7215;SDS011;3649;48.798;9.798;2023-07-31T09:58:05;3.87;;;2.33;;
7215;SDS011;3649;48.798;9.798;2023-07-31T10:00:33;5.63;;;2.80;;
7215;SDS011;3649;48.798;9.798;2023-07-31T10:03:02;5.50;;;2.13;;
7215;SDS011;3649;48.798;9.798;2023-07-31T10:05:52;5.53;;;2.70;;
7215;SDS011;3649;48.798;9.798;2023-07-31T10:08:23;5.37;;;2.63;;
7215;SDS011;3649;48.798;9.798;2023-07-31T10:10:58;7.30;;;2.43;;
7215;SDS011;3649;48.798;9.798;2023-07-31T10:13:27;4.83;;;2.20;;
7215;SDS011;3649;48.798;9.798;2023-07-31T10:15:56;3.73;;;2.30;;
7215;SDS011;3649;48.798;9.798;2023-07-31T10:18:26;4.47;;;2.53;;
7215;SDS011;3649;48.798;9.798;2023-07-31T10:20:56;3.20;;;2.20;;
7215;SDS011;3649;48.798;9.798;2023-07-31T10:23:24;5.77;;;2.63;;
7215;SDS011;3649;48.798;9.798;2023-07-31T10:25:52;2.93;;;2.10;;
7215;SDS011;3649;48.798;9.798;2023-07-31T10:28:20;7.33;;;2.47;;
7215;SDS011;3649;48.798;9.798;2023-07-31T10:30:48;5.60;;;2.27;;
7215;SDS011;3649;48.798;9.798;2023-07-31T10:33:16;5.03;;;2.40;;
7215;SDS011;3649;48.798;9.798;2023-07-31T10:35:44;5.77;;;2.20;;
7215;SDS011;3649;48.798;9.798;2023-07-31T10:38:13;3.00;;;1.90;;
7215;SDS011;3649;48.798;9.798;2023-07-31T10:40:40;3.77;;;2.10;;
7215;SDS011;3649;48.798;9.798;2023-07-31T10:43:08;5.20;;;2.30;;
7215;SDS011;3649;48.798;9.798;2023-07-31T10:45:39;4.33;;;2.30;;
7215;SDS011;3649;48.798;9.798;2023-07-31T10:48:13;5.20;;;2.40;;
7215;SDS011;3649;48.798;9.798;2023-07-31T10:50:51;7.07;;;2.70;;
7215;SDS011;3649;48.798;9.798;2023-07-31T10:53:23;5.20;;;2.63;;
7215;SDS011;3649;48.798;9.798;2023-07-31T10:55:51;4.93;;;2.20;;
7215;SDS011;3649;48.798;9.798;2023-07-31T10:58:19;4.33;;;2.33;;
7215;SDS011;3649;48.798;9.798;2023-07-31T11:00:49;5.57;;;2.67;;
7215;SDS011;3649;48.798;9.798;2023-07-31T11:03:24;4.23;;;2.70;;
7215;SDS011;3649;48.798;9.798;2023-07-31T11:05:53;6.13;;;2.93;;
7215;SDS011;3649;48.798;9.798;2023-07-31T11:08:31;3.10;;;2.20;;
7215;SDS011;3649;48.798;9.798;2023-07-31T11:13:31;4.13;;;2.30;;
7215;SDS011;3649;48.798;9.798;2023-07-31T11:16:00;6.80;;;2.60;;
7215;SDS011;3649;48.798;9.798;2023-07-31T11:18:27;4.07;;;2.30;;
7215;SDS011;3649;48.798;9.798;2023-07-31T11:20:55;5.33;;;2.20;;
7215;SDS011;3649;48.798;9.798;2023-07-31T11:23:22;3.77;;;2.37;;
7215;SDS011;3649;48.798;9.798;2023-07-31T11:25:50;3.93;;;2.20;;
7215;SDS011;3649;48.798;9.798;2023-07-31T11:28:17;4.00;;;2.27;;
7215;SDS011;3649;48.798;9.798;2023-07-31T11:30:46;3.63;;;2.27;;
7215;SDS011;3649;48.798;9.798;2023-07-31T11:33:13;5.50;;;2.73;;
7215;SDS011;3649;48.798;9.798;2023-07-31T11:38:12;4.23;;;2.57;;
7215;SDS011;3649;48.798;9.798;2023-07-31T11:40:56;4.17;;;2.30;;
7215;SDS011;3649;48.798;9.798;2023-07-31T11:43:29;4.23;;;2.20;;
7215;SDS011;3649;48.798;9.798;2023-07-31T11:45:58;8.50;;;2.50;;
7215;SDS011;3649;48.798;9.798;2023-07-31T11:48:32;5.57;;;2.10;;
7215;SDS011;3649;48.798;9.798;2023-07-31T11:51:05;3.77;;;2.70;;
7215;SDS011;3649;48.798;9.798;2023-07-31T11:53:49;4.67;;;2.83;;
7215;SDS011;3649;48.798;9.798;2023-07-31T11:56:20;3.60;;;2.20;;
7215;SDS011;3649;48.798;9.798;2023-07-31T11:58:53;6.57;;;2.53;;
7215;SDS011;3649;48.798;9.798;2023-07-31T12:01:23;9.27;;;2.73;;
7215;SDS011;3649;48.798;9.798;2023-07-31T12:03:51;3.00;;;2.47;;
7215;SDS011;3649;48.798;9.798;2023-07-31T12:06:19;3.93;;;2.33;;
7215;SDS011;3649;48.798;9.798;2023-07-31T12:08:47;3.73;;;2.40;;
7215;SDS011;3649;48.798;9.798;2023-07-31T12:11:15;6.07;;;2.83;;
7215;SDS011;3649;48.798;9.798;2023-07-31T12:13:44;4.73;;;2.43;;
7215;SDS011;3649;48.798;9.798;2023-07-31T12:16:11;6.67;;;2.50;;
7215;SDS011;3649;48.798;9.798;2023-07-31T12:18:38;6.00;;;2.53;;
7215;SDS011;3649;48.798;9.798;2023-07-31T12:21:06;3.77;;;2.77;;
7215;SDS011;3649;48.798;9.798;2023-07-31T12:23:35;4.03;;;2.67;;
7215;SDS011;3649;48.798;9.798;2023-07-31T12:28:30;3.00;;;2.33;;
7215;SDS011;3649;48.798;9.798;2023-07-31T12:31:12;8.30;;;2.47;;
7215;SDS011;3649;48.798;9.798;2023-07-31T12:33:41;6.27;;;2.53;;
7215;SDS011;3649;48.798;9.798;2023-07-31T12:36:09;3.40;;;2.50;;
7215;SDS011;3649;48.798;9.798;2023-07-31T12:38:38;5.77;;;2.40;;
7215;SDS011;3649;48.798;9.798;2023-07-31T12:41:05;6.57;;;2.80;;
7215;SDS011;3649;48.798;9.798;2023-07-31T12:43:33;3.70;;;2.70;;
7215;SDS011;3649;48.798;9.798;2023-07-31T12:46:04;3.43;;;2.50;;
7215;SDS011;3649;48.798;9.798;2023-07-31T12:48:32;4.33;;;2.73;;
7215;SDS011;3649;48.798;9.798;2023-07-31T12:50:59;4.10;;;2.77;;
7215;SDS011;3649;48.798;9.798;2023-07-31T12:53:27;6.27;;;2.53;;
7215;SDS011;3649;48.798;9.798;2023-07-31T12:55:55;4.27;;;2.50;;
7215;SDS011;3649;48.798;9.798;2023-07-31T12:58:22;5.40;;;2.40;;
7215;SDS011;3649;48.798;9.798;2023-07-31T13:00:50;4.93;;;2.67;;
7215;SDS011;3649;48.798;9.798;2023-07-31T13:03:17;5.37;;;2.80;;
7215;SDS011;3649;48.798;9.798;2023-07-31T13:05:44;7.50;;;2.70;;
7215;SDS011;3649;48.798;9.798;2023-07-31T13:08:11;4.80;;;2.67;;
7215;SDS011;3649;48.798;9.798;2023-07-31T13:10:38;6.17;;;2.87;;
7215;SDS011;3649;48.798;9.798;2023-07-31T13:13:06;7.50;;;2.40;;
7215;SDS011;3649;48.798;9.798;2023-07-31T13:15:33;7.87;;;2.50;;
7215;SDS011;3649;48.798;9.798;2023-07-31T13:18:00;5.13;;;2.50;;
7215;SDS011;3649;48.798;9.798;2023-07-31T13:20:27;3.27;;;2.53;;
7215;SDS011;3649;48.798;9.798;2023-07-31T13:22:54;4.27;;;2.90;;
7215;SDS011;3649;48.798;9.798;2023-07-31T13:25:21;6.17;;;2.77;;
7215;SDS011;3649;48.798;9.798;2023-07-31T13:27:47;4.67;;;3.03;;
7215;SDS011;3649;48.798;9.798;2023-07-31T13:30:15;2.57;;;2.37;;
7215;SDS011;3649;48.798;9.798;2023-07-31T13:32:42;3.13;;;2.57;;
7215;SDS011;3649;48.798;9.798;2023-07-31T13:35:10;4.30;;;2.47;;
7215;SDS011;3649;48.798;9.798;2023-07-31T13:37:38;2.83;;;2.53;;
7215;SDS011;3649;48.798;9.798;2023-07-31T13:40:06;4.17;;;2.90;;
7215;SDS011;3649;48.798;9.798;2023-07-31T13:42:33;8.20;;;2.70;;
7215;SDS011;3649;48.798;9.798;2023-07-31T13:45:00;4.73;;;3.20;;
7215;SDS011;3649;48.798;9.798;2023-07-31T13:47:32;6.13;;;2.50;;
7215;SDS011;3649;48.798;9.798;2023-07-31T13:50:01;5.37;;;3.57;;
7215;SDS011;3649;48.798;9.798;2023-07-31T13:52:28;6.07;;;3.00;;
7215;SDS011;3649;48.798;9.798;2023-07-31T13:54:55;3.93;;;2.80;;
7215;SDS011;3649;48.798;9.798;2023-07-31T13:57:23;4.17;;;2.70;;
7215;SDS011;3649;48.798;9.798;2023-07-31T13:59:50;6.27;;;3.30;;
7215;SDS011;3649;48.798;9.798;2023-07-31T14:02:17;3.30;;;2.83;;
7215;SDS011;3649;48.798;9.798;2023-07-31T14:04:44;3.37;;;2.73;;
7215;SDS011;3649;48.798;9.798;2023-07-31T14:07:11;4.07;;;2.87;;
7215;SDS011;3649;48.798;9.798;2023-07-31T14:09:38;3.70;;;2.50;;
7215;SDS011;3649;48.798;9.798;2023-07-31T14:12:05;5.13;;;2.90;;
7215;SDS011;3649;48.798;9.798;2023-07-31T14:14:33;5.43;;;3.23;;
7215;SDS011;3649;48.798;9.798;2023-07-31T14:17:00;5.00;;;3.00;;
7215;SDS011;3649;48.798;9.798;2023-07-31T14:19:28;4.57;;;3.07;;
7215;SDS011;3649;48.798;9.798;2023-07-31T14:21:58;5.00;;;2.83;;
7215;SDS011;3649;48.798;9.798;2023-07-31T14:24:37;5.37;;;2.60;;
7215;SDS011;3649;48.798;9.798;2023-07-31T14:27:05;5.77;;;3.00;;
7215;SDS011;3649;48.798;9.798;2023-07-31T14:29:32;6.80;;;2.63;;
7215;SDS011;3649;48.798;9.798;2023-07-31T14:31:59;3.87;;;3.07;;
7215;SDS011;3649;48.798;9.798;2023-07-31T14:34:26;3.77;;;2.50;;
7215;SDS011;3649;48.798;9.798;2023-07-31T14:36:54;5.70;;;2.80;;
7215;SDS011;3649;48.798;9.798;2023-07-31T14:39:21;4.63;;;2.60;;
7215;SDS011;3649;48.798;9.798;2023-07-31T14:41:48;5.77;;;2.90;;
7215;SDS011;3649;48.798;9.798;2023-07-31T14:44:15;6.03;;;2.80;;
7215;SDS011;3649;48.798;9.798;2023-07-31T14:46:42;3.80;;;3.10;;
7215;SDS011;3649;48.798;9.798;2023-07-31T14:49:09;4.63;;;3.00;;
7215;SDS011;3649;48.798;9.798;2023-07-31T14:51:36;7.97;;;2.90;;
7215;SDS011;3649;48.798;9.798;2023-07-31T14:54:04;5.50;;;3.17;;
7215;SDS011;3649;48.798;9.798;2023-07-31T14:56:31;4.80;;;2.57;;
7215;SDS011;3649;48.798;9.798;2023-07-31T14:58:58;4.97;;;2.93;;
7215;SDS011;3649;48.798;9.798;2023-07-31T15:01:26;2.97;;;2.33;;
7215;SDS011;3649;48.798;9.798;2023-07-31T15:03:53;5.90;;;2.87;;
7215;SDS011;3649;48.798;9.798;2023-07-31T15:06:20;6.70;;;3.20;;
7215;SDS011;3649;48.798;9.798;2023-07-31T15:08:47;4.87;;;3.23;;
7215;SDS011;3649;48.798;9.798;2023-07-31T15:11:14;3.03;;;2.60;;
7215;SDS011;3649;48.798;9.798;2023-07-31T15:13:42;6.33;;;3.23;;
7215;SDS011;3649;48.798;9.798;2023-07-31T15:16:10;4.00;;;3.00;;
7215;SDS011;3649;48.798;9.798;2023-07-31T15:18:37;4.13;;;2.67;;
7215;SDS011;3649;48.798;9.798;2023-07-31T15:21:05;4.77;;;3.00;;
7215;SDS011;3649;48.798;9.798;2023-07-31T15:23:33;4.47;;;3.00;;
7215;SDS011;3649;48.798;9.798;2023-07-31T15:26:00;6.20;;;2.90;;
7215;SDS011;3649;48.798;9.798;2023-07-31T15:28:28;4.77;;;2.73;;
7215;SDS011;3649;48.798;9.798;2023-07-31T15:30:55;4.30;;;3.10;;
7215;SDS011;3649;48.798;9.798;2023-07-31T15:33:22;5.27;;;2.97;;
7215;SDS011;3649;48.798;9.798;2023-07-31T15:35:49;8.03;;;3.20;;
7215;SDS011;3649;48.798;9.798;2023-07-31T15:38:16;3.30;;;2.40;;